Time;durP1;ratioP1;P1;durP2;ratioP2;P2;SDS_P1;SDS_P2;PMS_P1;PMS_P2;Temp;Humidity;BMP_temperature;BMP_pressure;BME280_temperature;BME280_humidity;BME280_pressure;Samples;Min_cycle;Max_cycle;Signal;HPM_P1;HPM_P2
2022/09/17 00:02:15;;;;;;;7.47;4.30;;;11.20;98.50;;;;;;5059098;28;20221;-85
2022/09/17 00:04:43;;;;;;;6.63;4.13;;;11.20;98.30;;;;;;5057736;28;20718;-86
2022/09/17 00:07:10;;;;;;;6.32;4.13;;;11.20;98.20;;;;;;5064517;28;20232;-86
2022/09/17 00:09:45;;;;;;;5.97;4.32;;;11.20;97.90;;;;;;5058389;28;20222;-86
2022/09/17 00:12:13;;;;;;;6.88;4.00;;;11.20;98.00;;;;;;5073142;28;20200;-85
2022/09/17 00:14:45;;;;;;;4.90;4.03;;;11.20;97.90;;;;;;5078768;28;20636;-86
2022/09/17 00:17:15;;;;;;;4.40;3.80;;;11.20;97.80;;;;;;5074883;28;20645;-85
2022/09/17 00:19:43;;;;;;;8.02;4.13;;;11.30;97.60;;;;;;5070999;28;20209;-86
2022/09/17 00:22:10;;;;;;;7.38;4.35;;;11.20;97.50;;;;;;5063137;28;20230;-86
2022/09/17 00:24:37;;;;;;;4.63;3.80;;;11.40;97.10;;;;;;5075001;28;20208;-86
2022/09/17 00:27:04;;;;;;;5.00;3.70;;;11.30;96.70;;;;;;5063164;28;20204;-86
2022/09/17 00:29:31;;;;;;;3.70;3.25;;;11.20;96.90;;;;;;5057307;28;20198;-87
2022/09/17 00:32:03;;;;;;;3.35;2.90;;;11.20;96.90;;;;;;5064592;28;20657;-85
2022/09/17 00:34:39;;;;;;;3.60;3.03;;;11.40;96.30;;;;;;5061599;28;20197;-86
2022/09/17 00:37:07;;;;;;;4.10;2.92;;;11.30;96.00;;;;;;5065918;28;20181;-86
2022/09/17 00:39:34;;;;;;;5.43;3.20;;;11.30;96.00;;;;;;5057424;28;20198;-86
2022/09/17 00:42:04;;;;;;;3.30;2.80;;;11.40;96.00;;;;;;5059879;28;20230;-86
2022/09/17 00:44:50;;;;;;;4.65;3.05;;;11.30;96.00;;;;;;5055886;28;20278;-85
2022/09/17 00:47:24;;;;;;;3.50;2.55;;;11.40;96.00;;;;;;5069415;28;20276;-86
2022/09/17 00:49:55;;;;;;;5.57;2.55;;;11.30;96.00;;;;;;5069630;28;20324;-86
2022/09/17 00:52:33;;;;;;;4.15;2.17;;;11.20;95.40;;;;;;5063257;28;20193;-86
2022/09/17 00:55:07;;;;;;;4.35;2.67;;;11.20;95.70;;;;;;5066802;28;20221;-86
2022/09/17 00:57:40;;;;;;;2.42;2.10;;;11.20;95.30;;;;;;5063814;28;20204;-86
2022/09/17 01:00:08;;;;;;;2.38;2.17;;;11.20;94.90;;;;;;5065177;28;20567;-88
2022/09/17 01:02:36;;;;;;;3.75;2.03;;;11.30;94.50;;;;;;5071848;28;20301;-88
2022/09/17 01:05:04;;;;;;;2.90;2.60;;;11.30;94.20;;;;;;5063977;28;20217;-86
2022/09/17 01:07:45;;;;;;;2.75;2.05;;;11.20;94.90;;;;;;5060466;28;20201;-86
2022/09/17 01:10:28;;;;;;;2.22;2.00;;;11.30;94.70;;;;;;5067806;28;20205;-86
2022/09/17 01:13:07;;;;;;;2.25;2.03;;;11.20;95.10;;;;;;5057811;28;20208;-86
2022/09/17 01:15:43;;;;;;;2.90;1.90;;;11.20;95.00;;;;;;5061615;28;20197;-86
2022/09/17 01:18:27;;;;;;;4.03;1.80;;;11.20;94.30;;;;;;5069886;28;20205;-86
2022/09/17 01:21:24;;;;;;;2.05;1.70;;;11.20;95.00;;;;;;5077332;28;20217;-85
2022/09/17 01:24:24;;;;;;;3.20;2.28;;;11.10;94.00;;;;;;5064678;28;20202;-87
2022/09/17 01:27:32;;;;;;;1.80;1.70;;;11.20;94.20;;;;;;5065456;28;20193;-87
2022/09/17 01:30:16;;;;;;;1.77;1.67;;;11.10;93.80;;;;;;5065473;28;20193;-85
2022/09/17 01:32:50;;;;;;;2.92;1.70;;;11.10;94.00;;;;;;5066818;28;20192;-86
2022/09/17 01:35:25;;;;;;;3.90;1.77;;;11.20;93.90;;;;;;5071905;28;20194;-86
2022/09/17 01:38:05;;;;;;;3.67;1.95;;;11.00;94.10;;;;;;5068809;28;20195;-86
2022/09/17 01:40:39;;;;;;;5.28;1.85;;;11.00;95.00;;;;;;5069208;28;20201;-86
2022/09/17 01:43:16;;;;;;;2.10;1.90;;;10.90;95.70;;;;;;5070637;28;20201;-86
2022/09/17 01:45:49;;;;;;;3.67;1.90;;;10.90;94.80;;;;;;5073338;28;20572;-86
2022/09/17 01:48:27;;;;;;;3.85;1.80;;;11.00;94.60;;;;;;5059992;28;20198;-88
2022/09/17 01:50:57;;;;;;;3.30;2.03;;;11.00;94.80;;;;;;5069564;28;20250;-86
2022/09/17 01:53:29;;;;;;;2.17;1.98;;;11.00;94.90;;;;;;5070116;28;20197;-86
2022/09/17 01:55:59;;;;;;;3.30;2.30;;;11.00;94.80;;;;;;5064748;28;20630;-86
2022/09/17 01:58:31;;;;;;;3.13;1.80;;;11.10;94.90;;;;;;5063764;28;20216;-86
2022/09/17 02:01:02;;;;;;;2.22;1.98;;;11.10;94.40;;;;;;5066127;28;20209;-86
2022/09/17 02:03:34;;;;;;;3.58;1.83;;;11.00;94.70;;;;;;5063791;28;20216;-86
2022/09/17 02:06:08;;;;;;;4.07;2.17;;;10.90;95.00;;;;;;5063327;28;20251;-86
2022/09/17 02:08:39;;;;;;;2.38;1.90;;;10.90;95.60;;;;;;5072901;28;20525;-86
2022/09/17 02:11:09;;;;;;;4.95;1.80;;;10.80;95.40;;;;;;5064097;28;20208;-85
2022/09/17 02:13:42;;;;;;;2.60;1.77;;;10.90;94.70;;;;;;5069677;28;20205;-86
2022/09/17 02:16:16;;;;;;;2.63;1.70;;;10.90;95.00;;;;;;5064254;28;20227;-85
2022/09/17 02:18:53;;;;;;;2.50;1.73;;;10.90;94.10;;;;;;5055083;28;20635;-85
2022/09/17 02:21:27;;;;;;;4.63;2.10;;;10.90;93.50;;;;;;5060653;28;20316;-86
2022/09/17 02:24:03;;;;;;;2.70;1.70;;;10.90;93.40;;;;;;5060850;28;20198;-86
2022/09/17 02:26:31;;;;;;;2.60;1.80;;;10.90;93.10;;;;;;5059318;28;20206;-86
2022/09/17 02:29:05;;;;;;;2.05;1.58;;;10.90;93.20;;;;;;5068322;28;20204;-86
2022/09/17 02:31:32;;;;;;;3.15;1.60;;;10.90;92.40;;;;;;5063092;28;20201;-86
2022/09/17 02:34:03;;;;;;;1.95;1.70;;;10.90;92.60;;;;;;5057380;28;20204;-86
2022/09/17 02:36:31;;;;;;;4.72;1.52;;;10.90;92.20;;;;;;5066608;28;20198;-86
2022/09/17 02:39:00;;;;;;;2.88;1.50;;;10.90;92.10;;;;;;5073805;28;20613;-86
2022/09/17 02:41:42;;;;;;;1.45;1.35;;;10.90;92.40;;;;;;5069030;28;20264;-87
2022/09/17 02:44:19;;;;;;;1.98;1.52;;;10.90;92.70;;;;;;5061014;28;20201;-86
2022/09/17 02:47:07;;;;;;;3.85;1.58;;;10.80;92.80;;;;;;5065957;28;20213;-86
2022/09/17 02:49:55;;;;;;;1.80;1.30;;;10.90;92.80;;;;;;5066457;28;20200;-86
2022/09/17 02:52:40;;;;;;;2.42;1.48;;;10.80;92.50;;;;;;5065742;28;20212;-87
2022/09/17 02:55:13;;;;;;;2.17;1.30;;;10.80;92.40;;;;;;5074309;28;20193;-86
2022/09/17 02:57:52;;;;;;;3.08;1.73;;;10.80;92.50;;;;;;5066120;28;20205;-85
2022/09/17 03:00:21;;;;;;;1.75;1.48;;;10.70;92.60;;;;;;5078196;28;20195;-86
2022/09/17 03:02:53;;;;;;;1.67;1.42;;;10.70;93.00;;;;;;5065526;28;20700;-86
2022/09/17 03:05:24;;;;;;;2.33;1.35;;;10.80;92.60;;;;;;5074785;28;20236;-86
2022/09/17 03:07:51;;;;;;;1.80;1.40;;;10.70;91.40;;;;;;5073547;28;20209;-86
2022/09/17 03:10:21;;;;;;;1.42;1.30;;;10.60;92.10;;;;;;5076138;28;20201;-85
2022/09/17 03:12:53;;;;;;;1.85;1.45;;;10.50;92.10;;;;;;5073820;28;20197;-85
2022/09/17 03:15:20;;;;;;;2.50;1.45;;;10.60;91.90;;;;;;5072500;28;20575;-85
2022/09/17 03:17:47;;;;;;;4.15;1.10;;;10.60;91.80;;;;;;5076613;28;20201;-86
2022/09/17 03:20:16;;;;;;;1.83;1.33;;;10.60;91.80;;;;;;5062243;28;20285;-86
2022/09/17 03:22:47;;;;;;;4.43;1.50;;;10.50;92.10;;;;;;5070691;28;20233;-85
2022/09/17 03:25:16;;;;;;;2.83;1.52;;;10.60;92.00;;;;;;5069664;28;20208;-85
2022/09/17 03:27:52;;;;;;;2.42;1.38;;;10.60;91.60;;;;;;5061466;28;20216;-86
2022/09/17 03:30:19;;;;;;;4.22;1.35;;;10.60;91.50;;;;;;5084521;28;20205;-86
2022/09/17 03:32:46;;;;;;;3.88;1.33;;;10.50;92.00;;;;;;5063732;28;20541;-85
2022/09/17 03:35:16;;;;;;;2.80;1.40;;;10.30;92.40;;;;;;5072646;28;20283;-86
2022/09/17 03:37:43;;;;;;;6.30;1.30;;;10.30;92.80;;;;;;5069395;28;20202;-86
2022/09/17 03:40:11;;;;;;;2.60;2.05;;;10.20;93.40;;;;;;5062178;28;20214;-86
2022/09/17 03:42:45;;;;;;;4.53;1.42;;;10.20;93.20;;;;;;5061526;28;20892;-86
2022/09/17 03:45:12;;;;;;;3.53;1.60;;;10.20;93.30;;;;;;5077102;28;20584;-86
2022/09/17 03:47:39;;;;;;;2.47;1.70;;;10.10;93.80;;;;;;5067510;28;20644;-86
2022/09/17 03:50:07;;;;;;;2.67;1.40;;;10.10;94.00;;;;;;5076482;28;20201;-86
2022/09/17 03:52:34;;;;;;;3.65;1.63;;;10.00;94.30;;;;;;5068344;28;20190;-85
2022/09/17 03:55:04;;;;;;;3.75;1.45;;;10.10;94.50;;;;;;5077456;28;20238;-86
2022/09/17 03:57:35;;;;;;;4.32;1.60;;;10.10;93.80;;;;;;5081998;28;20201;-86
2022/09/17 04:00:14;;;;;;;1.50;1.40;;;10.10;94.50;;;;;;5063913;28;20587;-86
2022/09/17 04:02:41;;;;;;;2.38;1.45;;;10.20;94.60;;;;;;5066310;28;20315;-85
2022/09/17 04:05:09;;;;;;;3.58;1.60;;;10.10;94.30;;;;;;5070581;28;20213;-86
2022/09/17 04:07:36;;;;;;;4.68;1.40;;;10.10;94.60;;;;;;5072631;28;20208;-85
2022/09/17 04:10:10;;;;;;;2.65;1.35;;;10.10;94.10;;;;;;5070248;28;20221;-86
2022/09/17 04:12:53;;;;;;;3.47;1.38;;;10.00;94.70;;;;;;5068327;28;20205;-86
2022/09/17 04:15:27;;;;;;;3.75;1.75;;;9.90;94.90;;;;;;5058573;28;20897;-86
2022/09/17 04:17:58;;;;;;;3.85;1.50;;;9.90;95.10;;;;;;5068366;28;20643;-86
2022/09/17 04:20:25;;;;;;;1.67;1.58;;;9.90;95.00;;;;;;5080381;28;20200;-86
2022/09/17 04:22:58;;;;;;;1.58;1.40;;;9.80;95.50;;;;;;5076369;28;20592;-86
2022/09/17 04:25:25;;;;;;;2.70;1.75;;;9.80;96.10;;;;;;5077352;28;20204;-86
2022/09/17 04:27:53;;;;;;;1.55;1.30;;;9.80;96.10;;;;;;5074497;28;20217;-85
2022/09/17 04:30:20;;;;;;;3.65;1.55;;;9.80;96.10;;;;;;5069138;28;20564;-85
2022/09/17 04:32:51;;;;;;;2.45;1.50;;;9.90;96.10;;;;;;5073074;28;20197;-86
2022/09/17 04:35:27;;;;;;;1.73;1.63;;;10.00;95.10;;;;;;5073690;28;20197;-85
2022/09/17 04:37:55;;;;;;;2.70;1.58;;;10.10;94.90;;;;;;5069755;28;20194;-86
2022/09/17 04:40:22;;;;;;;3.03;2.00;;;10.10;95.30;;;;;;5075152;28;20206;-86
2022/09/17 04:42:53;;;;;;;2.03;1.63;;;10.20;95.20;;;;;;5067773;28;20758;-86
2022/09/17 04:45:22;;;;;;;2.60;1.70;;;10.10;95.70;;;;;;5076214;28;20201;-86
2022/09/17 04:47:50;;;;;;;5.32;1.80;;;10.20;94.50;;;;;;5066108;28;20636;-86
2022/09/17 04:50:17;;;;;;;1.98;1.85;;;10.20;94.50;;;;;;5079454;28;20227;-86
2022/09/17 04:53:09;;;;;;;4.13;1.63;;;10.20;94.80;;;;;;5070332;28;20205;-85
2022/09/17 04:55:40;;;;;;;2.25;1.67;;;10.20;94.30;;;;;;5076010;28;20207;-86
2022/09/17 04:58:08;;;;;;;2.58;1.80;;;10.20;94.70;;;;;;5066002;28;20208;-86
2022/09/17 05:00:35;;;;;;;1.77;1.67;;;10.20;95.00;;;;;;5068693;28;20201;-86
2022/09/17 05:03:02;;;;;;;1.70;1.52;;;10.20;94.90;;;;;;5069813;28;20676;-86
2022/09/17 05:05:40;;;;;;;2.40;1.55;;;10.10;95.40;;;;;;5061190;28;20221;-86
2022/09/17 05:08:07;;;;;;;6.43;2.10;;;10.10;95.00;;;;;;5072548;28;20199;-86
2022/09/17 05:10:34;;;;;;;2.53;1.58;;;10.10;95.10;;;;;;5066256;28;20555;-86
2022/09/17 05:13:01;;;;;;;5.50;1.70;;;10.10;95.40;;;;;;5071340;28;20204;-86
2022/09/17 05:15:29;;;;;;;2.47;1.73;;;10.00;95.20;;;;;;5056232;28;20202;-86
2022/09/17 05:17:56;;;;;;;2.70;1.65;;;10.10;95.00;;;;;;5064736;28;20659;-87
2022/09/17 05:20:22;;;;;;;4.75;1.73;;;10.10;94.90;;;;;;5064371;28;20201;-87
2022/09/17 05:22:51;;;;;;;3.70;1.63;;;10.10;94.90;;;;;;5066755;28;20228;-85
2022/09/17 05:25:23;;;;;;;3.53;1.65;;;10.20;94.60;;;;;;5063524;28;20197;-86
2022/09/17 05:27:52;;;;;;;4.53;1.80;;;10.10;94.20;;;;;;5052502;28;20205;-86
2022/09/17 05:30:20;;;;;;;2.15;1.40;;;10.10;94.50;;;;;;5068363;28;20706;-87
2022/09/17 05:32:48;;;;;;;6.13;1.70;;;10.10;94.60;;;;;;5060829;28;20198;-86
2022/09/17 05:35:15;;;;;;;6.68;1.50;;;10.10;94.50;;;;;;5059704;28;20468;-87
2022/09/17 05:37:46;;;;;;;3.88;1.98;;;10.20;94.40;;;;;;5069364;28;20678;-86
2022/09/17 05:40:16;;;;;;;3.33;2.20;;;10.20;93.70;;;;;;5066100;28;20198;-87
2022/09/17 05:42:46;;;;;;;7.03;1.88;;;10.20;94.00;;;;;;5058019;28;20244;-86
2022/09/17 05:45:12;;;;;;;2.90;1.80;;;10.20;93.80;;;;;;5059744;28;20201;-86
2022/09/17 05:47:39;;;;;;;6.88;1.70;;;10.20;93.90;;;;;;5064177;28;20205;-86
2022/09/17 05:50:08;;;;;;;3.33;1.63;;;10.20;93.40;;;;;;5063888;28;20198;-85
2022/09/17 05:52:35;;;;;;;4.75;1.80;;;10.30;93.50;;;;;;5058439;28;20218;-86
2022/09/17 05:55:02;;;;;;;5.68;1.80;;;10.40;93.80;;;;;;5067882;28;20216;-86
2022/09/17 05:57:33;;;;;;;6.90;1.83;;;10.40;93.60;;;;;;5058574;28;20202;-86
2022/09/17 06:00:00;;;;;;;4.68;2.00;;;10.30;93.70;;;;;;5067287;28;20621;-85
2022/09/17 06:02:27;;;;;;;4.95;2.10;;;10.10;94.40;;;;;;5072159;28;20213;-86
2022/09/17 06:05:00;;;;;;;6.35;1.77;;;9.90;95.10;;;;;;5063353;28;20205;-85
2022/09/17 06:07:31;;;;;;;5.28;2.00;;;9.90;95.80;;;;;;5058569;28;20228;-86
2022/09/17 06:09:58;;;;;;;5.15;2.40;;;9.80;96.40;;;;;;5068720;28;20210;-86
2022/09/17 06:12:24;;;;;;;4.03;1.67;;;9.90;96.10;;;;;;5061837;28;20560;-86
2022/09/17 06:14:52;;;;;;;5.22;2.10;;;9.90;96.10;;;;;;5063048;28;20204;-88
2022/09/17 06:17:22;;;;;;;3.72;1.95;;;10.10;95.80;;;;;;5060710;28;20208;-87
2022/09/17 06:19:52;;;;;;;3.47;1.83;;;10.10;95.70;;;;;;5067015;28;20197;-88
2022/09/17 06:22:19;;;;;;;5.50;1.80;;;10.10;95.20;;;;;;5047544;28;20225;-89
2022/09/17 06:24:48;;;;;;;3.67;1.95;;;10.20;95.80;;;;;;5059549;28;20652;-86
2022/09/17 06:27:16;;;;;;;3.67;2.03;;;10.30;95.80;;;;;;5060329;28;20215;-86
2022/09/17 06:29:42;;;;;;;3.30;2.05;;;10.40;95.60;;;;;;5062191;28;20220;-85
2022/09/17 06:32:11;;;;;;;4.50;1.70;;;10.30;94.00;;;;;;5062657;28;20206;-86
2022/09/17 06:34:38;;;;;;;3.33;1.73;;;10.30;94.10;;;;;;5057883;28;20200;-86
2022/09/17 06:37:10;;;;;;;6.32;1.90;;;10.40;94.30;;;;;;5060003;28;20225;-87
2022/09/17 06:39:36;;;;;;;3.40;1.83;;;10.40;94.60;;;;;;5063652;28;20561;-86
2022/09/17 06:42:05;;;;;;;4.28;1.83;;;10.40;94.60;;;;;;5059322;28;20205;-88
2022/09/17 06:44:39;;;;;;;6.43;2.03;;;10.40;93.40;;;;;;5057364;28;20204;-86
2022/09/17 06:47:06;;;;;;;5.55;2.00;;;10.40;93.50;;;;;;5048798;28;20566;-86
2022/09/17 06:49:33;;;;;;;5.03;1.80;;;10.40;93.90;;;;;;5063357;28;20193;-84
2022/09/17 06:52:00;;;;;;;6.78;1.85;;;10.50;94.00;;;;;;5061178;28;20224;-87
2022/09/17 06:54:27;;;;;;;3.60;1.77;;;10.50;93.10;;;;;;5054012;28;20202;-86
2022/09/17 06:56:54;;;;;;;5.80;1.90;;;10.50;92.90;;;;;;5060305;28;20561;-85
2022/09/17 06:59:23;;;;;;;3.00;1.80;;;10.50;92.80;;;;;;5057330;28;20572;-85
2022/09/17 07:01:52;;;;;;;8.13;1.98;;;10.50;92.90;;;;;;5066363;28;20201;-86
2022/09/17 07:04:28;;;;;;;3.75;1.60;;;10.40;92.70;;;;;;5066042;28;20228;-87
2022/09/17 07:06:57;;;;;;;2.30;1.63;;;10.40;93.10;;;;;;5067110;28;20201;-85
2022/09/17 07:09:24;;;;;;;5.35;1.80;;;10.30;93.50;;;;;;5059501;28;20201;-85
2022/09/17 07:11:51;;;;;;;3.58;1.60;;;10.30;93.60;;;;;;5053036;28;20197;-86
2022/09/17 07:14:24;;;;;;;3.40;2.00;;;10.40;93.40;;;;;;5068215;28;20204;-86
2022/09/17 07:16:53;;;;;;;4.20;1.63;;;10.40;93.20;;;;;;5063988;28;20231;-85
2022/09/17 07:19:22;;;;;;;3.88;1.80;;;10.30;93.10;;;;;;5065180;28;20547;-85
2022/09/17 07:22:33;;;;;;;2.25;1.63;;;10.30;93.30;;;;;;5070677;28;21110;-86
2022/09/17 07:25:04;;;;;;;5.05;2.17;;;10.30;93.60;;;;;;5064963;28;20208;-86
2022/09/17 07:27:40;;;;;;;7.95;2.40;;;10.40;93.30;;;;;;5069946;28;20671;-85
2022/09/17 07:30:14;;;;;;;4.15;1.70;;;10.60;92.30;;;;;;5069973;28;20224;-86
2022/09/17 07:32:41;;;;;;;6.57;1.77;;;10.50;91.60;;;;;;5068018;28;20193;-87
2022/09/17 07:35:08;;;;;;;3.42;1.50;;;10.50;91.40;;;;;;5072098;28;20185;-86
2022/09/17 07:37:35;;;;;;;6.63;1.80;;;10.70;91.20;;;;;;5063908;28;20209;-85
2022/09/17 07:40:02;;;;;;;5.75;1.88;;;10.90;90.50;;;;;;5065817;28;20202;-85
2022/09/17 07:42:31;;;;;;;4.07;1.73;;;11.00;90.50;;;;;;5071416;28;20292;-85
2022/09/17 07:45:05;;;;;;;5.72;2.00;;;11.00;90.50;;;;;;5061735;28;20930;-86
2022/09/17 07:47:39;;;;;;;4.70;1.77;;;11.00;90.80;;;;;;5068481;28;20285;-86
2022/09/17 07:50:06;;;;;;;5.40;2.05;;;11.20;89.00;;;;;;5072974;28;20189;-84
2022/09/17 07:52:33;;;;;;;2.70;1.55;;;11.50;85.30;;;;;;5066650;28;20200;-85
2022/09/17 07:55:00;;;;;;;3.25;2.00;;;11.70;80.30;;;;;;5066060;28;20254;-86
2022/09/17 07:57:28;;;;;;;4.13;1.90;;;11.70;77.40;;;;;;5055910;28;20224;-87
2022/09/17 07:59:54;;;;;;;3.75;1.40;;;11.70;75.00;;;;;;5067067;28;20193;-85
2022/09/17 08:02:22;;;;;;;6.10;1.70;;;11.50;74.80;;;;;;5068914;28;20197;-83
2022/09/17 08:04:54;;;;;;;5.90;1.70;;;11.50;77.10;;;;;;5078114;28;20213;-84
2022/09/17 08:07:23;;;;;;;3.65;1.52;;;11.30;78.60;;;;;;5064204;28;20220;-86
2022/09/17 08:09:50;;;;;;;7.20;2.15;;;11.20;79.10;;;;;;5065543;28;20659;-87
2022/09/17 08:12:22;;;;;;;5.28;1.63;;;11.20;79.50;;;;;;5065245;28;20205;-86
2022/09/17 08:14:48;;;;;;;4.55;1.52;;;11.20;80.50;;;;;;5057180;28;20209;-85
2022/09/17 08:17:16;;;;;;;4.75;1.60;;;11.20;83.80;;;;;;5060837;28;20205;-86
2022/09/17 08:19:43;;;;;;;7.50;1.88;;;11.10;82.20;;;;;;5065625;28;20576;-86
2022/09/17 08:22:11;;;;;;;4.38;1.48;;;11.20;80.30;;;;;;5063623;28;20197;-87
2022/09/17 08:24:47;;;;;;;3.90;1.50;;;11.30;80.30;;;;;;5070028;28;20225;-86
2022/09/17 08:27:16;;;;;;;3.63;1.70;;;11.20;79.60;;;;;;5058494;28;20199;-87
2022/09/17 08:29:42;;;;;;;6.18;1.88;;;11.30;79.50;;;;;;5071179;28;20205;-89
2022/09/17 08:32:16;;;;;;;3.35;1.70;;;11.50;80.90;;;;;;5063556;28;20293;-86
2022/09/17 08:34:42;;;;;;;3.55;1.75;;;11.90;74.70;;;;;;5059113;28;20206;-85
2022/09/17 08:37:47;;;;;;;4.82;1.55;;;12.20;71.00;;;;;;5069494;28;20200;-85
2022/09/17 08:40:19;;;;;;;5.38;1.60;;;12.20;72.10;;;;;;5065535;28;20215;-86
2022/09/17 08:43:01;;;;;;;4.25;1.40;;;12.50;68.00;;;;;;5073848;28;20203;-85
2022/09/17 08:45:29;;;;;;;4.35;1.52;;;12.50;68.40;;;;;;5063895;28;20190;-85
2022/09/17 08:48:03;;;;;;;5.93;1.65;;;12.60;68.40;;;;;;5068934;28;20200;-86
2022/09/17 08:50:32;;;;;;;4.43;1.48;;;12.50;67.10;;;;;;5074252;28;20189;-86
2022/09/17 08:53:23;;;;;;;5.72;1.60;;;12.40;67.50;;;;;;5076308;28;20286;-85
2022/09/17 08:55:58;;;;;;;6.65;1.80;;;12.40;71.70;;;;;;5063660;28;20193;-84
2022/09/17 08:58:55;;;;;;;7.40;1.80;;;12.20;69.80;;;;;;5068593;28;20231;-87
2022/09/17 09:01:34;;;;;;;4.60;1.67;;;12.00;70.20;;;;;;5067153;28;20201;-86
2022/09/17 09:04:24;;;;;;;17.80;9.77;;;11.80;67.90;;;;;;5067608;28;20586;-88
2022/09/17 09:06:55;;;;;;;5.25;1.70;;;11.90;71.20;;;;;;5064895;28;20202;-87
2022/09/17 09:09:28;;;;;;;8.25;3.08;;;11.80;72.60;;;;;;5068633;28;20205;-87
2022/09/17 09:12:01;;;;;;;77.18;51.25;;;11.90;75.20;;;;;;5072711;28;20201;-87
2022/09/17 09:14:32;;;;;;;26.08;17.95;;;12.00;75.10;;;;;;5060243;28;20224;-87
2022/09/17 09:17:07;;;;;;;3.42;1.67;;;11.90;75.10;;;;;;5067747;28;20198;-87
2022/09/17 09:19:44;;;;;;;4.90;1.58;;;11.80;75.00;;;;;;5066802;28;20209;-88
2022/09/17 09:22:32;;;;;;;6.38;1.50;;;11.90;72.70;;;;;;5070752;28;20201;-87
2022/09/17 09:25:09;;;;;;;4.75;1.50;;;12.10;67.20;;;;;;5075713;28;20260;-89
2022/09/17 09:27:42;;;;;;;5.00;1.92;;;12.00;62.10;;;;;;5073677;28;20204;-87
2022/09/17 09:30:12;;;;;;;4.50;1.40;;;12.00;62.50;;;;;;5076822;28;20208;-87
2022/09/17 09:32:58;;;;;;;7.63;1.80;;;12.20;60.70;;;;;;5068783;28;20220;-87
2022/09/17 09:35:30;;;;;;;7.25;1.67;;;12.30;63.60;;;;;;5073290;28;20210;-87
2022/09/17 09:38:04;;;;;;;3.72;1.50;;;12.20;60.70;;;;;;5071660;28;20296;-87
2022/09/17 09:40:41;;;;;;;4.93;1.77;;;12.10;58.60;;;;;;5073680;28;20552;-87
2022/09/17 09:43:17;;;;;;;6.70;2.13;;;12.00;64.70;;;;;;5070401;28;20200;-87
2022/09/17 09:45:59;;;;;;;5.13;1.70;;;11.90;70.10;;;;;;5069290;28;20247;-87
2022/09/17 09:48:44;;;;;;;4.57;1.90;;;11.80;75.00;;;;;;5067071;28;20197;-87
2022/09/17 09:51:34;;;;;;;8.25;1.98;;;11.60;74.80;;;;;;5065239;28;20263;-86
2022/09/17 09:54:30;;;;;;;6.38;1.70;;;11.70;75.00;;;;;;5068110;28;20190;-87
2022/09/17 09:57:05;;;;;;;7.80;1.88;;;11.70;75.00;;;;;;5066451;28;20645;-87
2022/09/17 09:59:46;;;;;;;5.07;1.98;;;11.80;75.00;;;;;;5069399;28;20242;-87
2022/09/17 10:05:40;;;;;;;4.85;1.55;;;12.10;70.50;;;;;;5068476;28;20271;-87
2022/09/17 10:08:23;;;;;;;6.68;1.67;;;12.00;74.30;;;;;;5072734;28;20257;-89
2022/09/17 10:10:58;;;;;;;5.05;2.80;;;11.80;76.50;;;;;;5063123;28;20205;-87
2022/09/17 10:13:31;;;;;;;6.78;1.80;;;11.60;81.00;;;;;;5066874;28;20232;-85
2022/09/17 10:16:16;;;;;;;10.68;6.32;;;11.40;83.40;;;;;;5061335;28;20582;-85
2022/09/17 10:18:43;;;;;;;6.97;2.10;;;11.20;84.60;;;;;;5054439;28;20194;-86
2022/09/17 10:21:30;;;;;;;8.07;1.80;;;11.20;85.40;;;;;;5062249;28;20265;-86
2022/09/17 10:23:59;;;;;;;4.88;1.85;;;11.20;86.10;;;;;;5061202;28;20210;-85
2022/09/17 10:26:36;;;;;;;7.07;2.15;;;10.90;88.60;;;;;;5062862;28;20202;-86
2022/09/17 10:29:11;;;;;;;5.25;2.00;;;10.80;90.50;;;;;;5068669;28;20201;-86
2022/09/17 10:31:47;;;;;;;6.13;2.20;;;10.70;91.70;;;;;;5042899;28;20219;-87
2022/09/17 10:34:20;;;;;;;4.65;1.85;;;10.60;93.30;;;;;;5063249;28;20197;-86
2022/09/17 10:37:27;;;;;;;36.83;21.83;;;10.50;94.30;;;;;;5060771;28;20660;-86
2022/09/17 10:39:58;;;;;;;3.25;2.08;;;10.50;94.70;;;;;;5057294;28;20280;-86
2022/09/17 10:42:28;;;;;;;4.82;2.03;;;10.50;94.70;;;;;;5064665;28;20659;-86
2022/09/17 10:44:58;;;;;;;15.43;9.98;;;10.40;95.20;;;;;;5062847;28;20751;-86
2022/09/17 10:47:30;;;;;;;8.25;1.95;;;10.60;95.90;;;;;;5070857;28;20220;-87
2022/09/17 10:50:00;;;;;;;5.53;2.67;;;10.70;95.70;;;;;;5066543;28;20582;-86
2022/09/17 10:52:46;;;;;;;5.03;1.80;;;10.80;95.00;;;;;;5060921;28;20197;-86
2022/09/17 10:55:26;;;;;;;3.80;1.70;;;10.90;94.00;;;;;;5074799;28;20201;-89
2022/09/17 10:58:03;;;;;;;3.88;1.60;;;11.00;93.60;;;;;;5073467;28;20198;-89
2022/09/17 11:00:47;;;;;;;5.40;1.80;;;11.00;93.60;;;;;;5071723;28;20258;-91
2022/09/17 11:03:47;;;;;;;6.32;1.88;;;11.10;94.50;;;;;;5064303;28;20201;-89
2022/09/17 11:06:40;;;;;;;16.80;12.65;;;11.20;93.20;;;;;;5069270;28;20221;-89
2022/09/17 11:09:18;;;;;;;5.88;1.80;;;11.50;92.70;;;;;;5071507;28;20209;-89
2022/09/17 11:11:58;;;;;;;5.30;1.45;;;11.60;92.10;;;;;;5074997;28;20723;-89
2022/09/17 11:14:48;;;;;;;4.38;1.50;;;11.70;92.40;;;;;;5065527;28;20201;-86
2022/09/17 11:17:45;;;;;;;2.92;1.58;;;11.70;92.40;;;;;;5071223;28;20201;-87
2022/09/17 11:20:28;;;;;;;4.05;1.85;;;11.70;93.40;;;;;;5076286;28;20224;-86
2022/09/17 11:23:07;;;;;;;4.28;2.20;;;11.80;92.40;;;;;;5072214;28;20212;-87
2022/09/17 11:25:45;;;;;;;3.17;1.63;;;11.70;91.80;;;;;;5068967;28;20232;-87
2022/09/17 11:28:30;;;;;;;3.65;1.65;;;11.40;90.60;;;;;;5065415;28;20212;-87
2022/09/17 11:31:17;;;;;;;2.95;1.27;;;11.10;91.90;;;;;;5060775;28;20201;-87
2022/09/17 11:34:20;;;;;;;2.78;1.30;;;11.10;92.60;;;;;;5061195;28;20194;-88
2022/09/17 11:36:55;;;;;;;4.57;2.00;;;11.20;92.40;;;;;;5062024;28;20193;-88
2022/09/17 11:39:25;;;;;;;4.03;1.45;;;11.30;92.80;;;;;;5066225;28;20284;-86
2022/09/17 11:41:55;;;;;;;3.53;1.30;;;11.40;91.00;;;;;;5064722;28;20260;-85
2022/09/17 11:44:27;;;;;;;3.75;1.30;;;11.50;91.70;;;;;;5065538;28;20232;-86
2022/09/17 11:46:57;;;;;;;1.27;1.00;;;11.30;92.40;;;;;;5067271;28;20208;-87
2022/09/17 11:49:35;;;;;;;3.97;1.80;;;11.20;93.30;;;;;;5070158;28;20570;-86
2022/09/17 11:52:06;;;;;;;3.53;1.70;;;11.30;92.70;;;;;;5072222;28;20538;-87
2022/09/17 11:55:00;;;;;;;2.58;1.33;;;11.50;92.90;;;;;;5066428;28;20209;-86
2022/09/17 11:57:32;;;;;;;2.90;1.60;;;11.80;92.00;;;;;;5069718;28;20201;-86
2022/09/17 12:00:18;;;;;;;2.92;1.40;;;12.20;91.70;;;;;;5067519;28;20215;-88
2022/09/17 12:06:23;;;;;;;5.07;1.63;;;12.20;89.40;;;;;;5066809;28;20274;-87
2022/09/17 12:08:56;;;;;;;2.75;1.35;;;12.10;90.80;;;;;;5083449;28;20563;-87
2022/09/17 12:11:28;;;;;;;2.22;1.30;;;12.10;90.80;;;;;;5064716;28;20206;-87
2022/09/17 12:14:04;;;;;;;5.00;1.70;;;12.00;90.30;;;;;;5066779;28;20201;-87
2022/09/17 12:16:38;;;;;;;5.22;1.77;;;12.00;90.50;;;;;;5074047;28;20193;-87
2022/09/17 12:19:18;;;;;;;5.15;1.70;;;11.90;86.40;;;;;;5079021;28;20296;-86
2022/09/17 12:21:51;;;;;;;3.22;1.23;;;11.80;88.90;;;;;;5066646;28;20659;-87
2022/09/17 12:24:29;;;;;;;4.15;1.80;;;11.60;90.20;;;;;;5073228;28;20218;-86
2022/09/17 12:27:06;;;;;;;2.50;1.30;;;11.50;88.60;;;;;;5065175;28;20201;-86
2022/09/17 12:29:49;;;;;;;3.75;1.63;;;11.30;89.20;;;;;;5064711;28;20691;-88
2022/09/17 12:32:32;;;;;;;2.97;1.45;;;11.20;90.30;;;;;;5064238;28;20194;-87
2022/09/17 12:35:05;;;;;;;2.72;1.40;;;11.30;90.80;;;;;;5068261;28;20540;-89
2022/09/17 12:37:50;;;;;;;4.18;1.42;;;11.40;90.30;;;;;;5064726;28;20308;-86
2022/09/17 12:40:28;;;;;;;4.63;1.55;;;11.40;88.80;;;;;;5068586;28;20657;-89
2022/09/17 12:43:14;;;;;;;3.08;1.50;;;11.40;88.50;;;;;;5064586;28;20193;-86
2022/09/17 12:45:56;;;;;;;3.13;1.42;;;11.50;87.80;;;;;;5064167;28;20209;-87
2022/09/17 12:48:59;;;;;;;2.13;1.60;;;11.50;89.50;;;;;;5066511;28;20204;-87
2022/09/17 12:55:24;;;;;;;4.00;1.40;;;11.70;86.20;;;;;;5000466;28;20194;-86
2022/09/17 13:01:48;;;;;;;2.65;1.50;;;12.20;79.90;;;;;;4999808;28;20191;-86
2022/09/17 13:07:59;;;;;;;3.58;1.70;;;12.40;78.70;;;;;;4981594;28;20226;-86
2022/09/17 13:14:10;;;;;;;8.32;2.00;;;11.80;79.20;;;;;;4992210;28;20238;-87
2022/09/17 13:16:43;;;;;;;6.05;2.10;;;11.60;81.80;;;;;;4986150;28;20284;-87
2022/09/17 13:19:38;;;;;;;6.82;1.80;;;11.60;83.30;;;;;;4985108;28;20201;-87
2022/09/17 13:22:44;;;;;;;6.43;2.30;;;11.50;84.10;;;;;;4983426;28;20201;-88
2022/09/17 13:25:13;;;;;;;4.32;2.10;;;11.50;88.20;;;;;;4990101;28;20215;-88
2022/09/17 13:27:41;;;;;;;3.72;1.67;;;11.20;90.60;;;;;;4990836;28;20199;-90
2022/09/17 13:30:48;;;;;;;4.35;1.95;;;11.10;90.50;;;;;;5062667;28;20197;-87
2022/09/17 13:36:45;;;;;;;218.18;167.07;;;11.70;97.30;;;;;;5066112;28;20197;-86
2022/09/17 13:39:37;;;;;;;85.45;64.57;;;12.60;99.40;;;;;;5067232;28;20208;-87
2022/09/17 13:42:44;;;;;;;59.70;45.30;;;12.80;95.40;;;;;;5073395;28;20201;-86
2022/09/17 13:49:16;;;;;;;4.47;2.40;;;13.50;86.80;;;;;;5070522;28;20262;-86
2022/09/17 13:55:07;;;;;;;2.95;1.70;;;12.30;83.60;;;;;;5070568;28;20548;-85